createdAt,value
2022-09-03T00:03:44.844Z,21.13
2022-09-03T00:06:27.303Z,18.67
2022-09-03T00:09:21.424Z,19.42
2022-09-03T00:12:01.142Z,23.17
2022-09-03T00:14:47.823Z,17.23
2022-09-03T00:17:22.852Z,19.02
2022-09-03T00:20:02.129Z,25.40
2022-09-03T00:22:43.163Z,17.40
2022-09-03T00:25:15.157Z,18.13
2022-09-03T00:27:45.572Z,15.25
2022-09-03T00:30:17.283Z,16.90
2022-09-03T00:33:09.714Z,19.95
2022-09-03T00:36:03.268Z,23.23
2022-09-03T00:38:31.422Z,21.50
2022-09-03T00:41:07.206Z,19.17
2022-09-03T00:43:49.404Z,19.70
2022-09-03T00:46:22.707Z,23.63
2022-09-03T00:49:27.224Z,20.50
2022-09-03T00:52:19.163Z,18.85
2022-09-03T00:55:10.432Z,17.33
2022-09-03T00:57:58.162Z,21.73
2022-09-03T01:00:25.257Z,18.67
2022-09-03T01:03:10.334Z,18.00
2022-09-03T01:06:09.331Z,20.40
2022-09-03T01:09:12.537Z,22.35
2022-09-03T01:12:25.584Z,19.38
2022-09-03T01:14:59.943Z,14.98
2022-09-03T01:17:32.643Z,17.30
2022-09-03T01:20:28.837Z,21.02
2022-09-03T01:23:36.144Z,19.30
2022-09-03T01:26:11.657Z,18.33
2022-09-03T01:29:16.845Z,21.10
2022-09-03T01:32:15.535Z,18.17
2022-09-03T01:35:01.124Z,23.67
2022-09-03T01:37:49.212Z,23.88
2022-09-03T01:40:31.702Z,27.05
2022-09-03T01:43:34.026Z,26.23
2022-09-03T01:46:15.236Z,18.52
2022-09-03T01:48:53.584Z,27.38
2022-09-03T01:54:10.818Z,24.05
2022-09-03T01:57:03.413Z,19.08
2022-09-03T01:59:53.183Z,17.58
2022-09-03T02:02:25.814Z,18.90
2022-09-03T02:05:12.080Z,24.60
2022-09-03T02:07:45.118Z,26.55
2022-09-03T02:10:16.774Z,22.38
2022-09-03T02:12:52.573Z,17.00
2022-09-03T02:15:23.345Z,24.43
2022-09-03T02:17:55.802Z,21.25
2022-09-03T02:20:26.866Z,18.70
2022-09-03T02:22:54.752Z,24.45
2022-09-03T02:25:25.223Z,19.60
2022-09-03T02:27:53.142Z,18.83
2022-09-03T02:30:20.165Z,21.17
2022-09-03T02:32:47.942Z,21.90
2022-09-03T02:35:15.025Z,20.30
2022-09-03T02:37:42.062Z,24.80
2022-09-03T02:40:10.442Z,21.58
2022-09-03T02:42:37.443Z,23.42
2022-09-03T02:45:24.462Z,18.38
2022-09-03T02:47:59.303Z,17.40
2022-09-03T02:50:26.876Z,22.27
2022-09-03T02:52:54.054Z,21.48
2022-09-03T02:55:22.034Z,23.20
2022-09-03T02:57:49.003Z,24.38
2022-09-03T03:00:16.135Z,22.77
2022-09-03T03:02:43.403Z,28.63
2022-09-03T03:05:18.972Z,21.45
2022-09-03T03:07:46.022Z,22.83
2022-09-03T03:10:13.002Z,24.38
2022-09-03T03:12:40.329Z,27.38
2022-09-03T03:15:07.603Z,28.35
2022-09-03T03:17:34.814Z,28.42
2022-09-03T03:20:01.845Z,22.33
2022-09-03T03:22:28.905Z,24.73
2022-09-03T03:24:57.859Z,24.95
2022-09-03T03:27:25.024Z,27.42
2022-09-03T03:29:52.496Z,20.23
2022-09-03T03:32:19.497Z,22.88
2022-09-03T03:34:49.585Z,23.50
2022-09-03T03:37:16.607Z,20.08
2022-09-03T03:39:43.625Z,24.17
2022-09-03T03:42:10.745Z,19.55
2022-09-03T03:44:37.983Z,19.15
2022-09-03T03:47:06.195Z,19.67
2022-09-03T03:49:33.204Z,18.25
2022-09-03T03:52:00.234Z,18.00
2022-09-03T03:54:27.284Z,23.15
2022-09-03T03:56:55.614Z,17.98
2022-09-03T03:59:23.223Z,13.73
2022-09-03T04:01:51.036Z,20.73
2022-09-03T04:04:18.194Z,18.48
2022-09-03T04:06:45.234Z,17.88
2022-09-03T04:09:12.154Z,21.38
2022-09-03T04:11:39.504Z,16.00
2022-09-03T04:14:06.435Z,16.05
2022-09-03T04:16:33.382Z,15.43
2022-09-03T04:19:00.431Z,19.73
2022-09-03T04:21:30.931Z,15.88
2022-09-03T04:23:58.867Z,19.45
2022-09-03T04:26:33.231Z,18.33
2022-09-03T04:29:02.544Z,17.70
2022-09-03T04:31:29.433Z,18.27
2022-09-03T04:33:57.194Z,21.10
2022-09-03T04:36:27.353Z,27.92
2022-09-03T04:38:56.283Z,21.73
2022-09-03T04:41:26.336Z,17.92
2022-09-03T04:43:55.065Z,21.77
2022-09-03T04:46:26.317Z,24.65
2022-09-03T04:48:55.231Z,21.02
2022-09-03T04:51:25.543Z,17.95
2022-09-03T04:53:57.604Z,25.48
2022-09-03T04:56:29.758Z,25.23
2022-09-03T04:59:02.151Z,17.63
2022-09-03T05:01:31.493Z,19.58
2022-09-03T05:03:59.715Z,25.67
2022-09-03T05:06:28.411Z,22.77
2022-09-03T05:08:56.536Z,25.42
2022-09-03T05:11:25.681Z,22.35
2022-09-03T05:13:55.143Z,20.75
2022-09-03T05:16:23.994Z,22.02
2022-09-03T05:18:56.111Z,26.08
2022-09-03T05:21:24.055Z,20.25
2022-09-03T05:23:53.088Z,23.65
2022-09-03T05:26:26.793Z,22.55
2022-09-03T05:29:01.593Z,24.50
2022-09-03T05:31:32.285Z,18.02
2022-09-03T05:34:02.658Z,26.85
2022-09-03T05:36:32.771Z,25.55
2022-09-03T05:38:59.997Z,22.48
2022-09-03T05:41:28.774Z,24.40
2022-09-03T05:43:59.430Z,18.98
2022-09-03T05:46:32.351Z,19.65
2022-09-03T05:49:04.379Z,18.25
2022-09-03T05:51:32.676Z,17.85
2022-09-03T05:53:59.983Z,23.23
2022-09-03T05:56:29.471Z,19.27
2022-09-03T05:59:02.272Z,17.73
2022-09-03T06:01:35.055Z,23.10
2022-09-03T06:04:07.373Z,20.08
2022-09-03T06:06:37.735Z,22.33
2022-09-03T06:09:07.434Z,24.95
2022-09-03T06:11:37.466Z,18.48
2022-09-03T06:14:06.926Z,15.85
2022-09-03T06:16:36.017Z,18.60
2022-09-03T06:19:06.271Z,22.27
2022-09-03T06:21:33.318Z,22.83
2022-09-03T06:24:00.414Z,24.58
2022-09-03T06:26:31.062Z,23.17
2022-09-03T06:28:58.380Z,30.17
2022-09-03T06:31:26.354Z,20.13
2022-09-03T06:33:55.208Z,27.88
2022-09-03T06:36:24.536Z,24.50
2022-09-03T06:38:56.141Z,22.35
2022-09-03T06:41:31.951Z,22.42
2022-09-03T06:44:03.546Z,16.73
2022-09-03T06:46:39.037Z,25.40
2022-09-03T06:49:06.491Z,16.38
2022-09-03T06:51:34.191Z,26.42
2022-09-03T06:54:06.901Z,21.40
2022-09-03T06:56:39.995Z,18.50
2022-09-03T06:59:10.748Z,21.92
2022-09-03T07:01:44.592Z,20.20
2022-09-03T07:04:14.147Z,22.25
2022-09-03T07:06:42.992Z,27.73
2022-09-03T07:09:13.127Z,28.67
2022-09-03T07:11:47.508Z,22.73
2022-09-03T07:14:17.825Z,25.42
2022-09-03T07:16:46.365Z,24.88
2022-09-03T07:19:14.264Z,24.55
2022-09-03T07:21:46.730Z,22.88
2022-09-03T07:24:16.380Z,23.73
2022-09-03T07:26:49.758Z,22.02
2022-09-03T07:29:20.968Z,21.65
2022-09-03T07:31:52.389Z,21.85
2022-09-03T07:34:22.252Z,25.00
2022-09-03T07:36:53.755Z,26.00
2022-09-03T07:39:20.850Z,20.95
2022-09-03T07:41:48.233Z,19.75
2022-09-03T07:44:20.022Z,22.35
2022-09-03T07:46:51.685Z,24.70
2022-09-03T07:49:20.423Z,27.05
2022-09-03T07:51:50.856Z,23.27
2022-09-03T07:54:17.985Z,18.70
2022-09-03T07:56:44.992Z,17.35
2022-09-03T07:59:12.312Z,22.90
2022-09-03T08:01:41.336Z,24.33
2022-09-03T08:04:09.998Z,25.25
2022-09-03T08:06:38.586Z,22.65
2022-09-03T08:09:08.223Z,23.38
2022-09-03T08:11:38.860Z,22.50
2022-09-03T08:14:08.726Z,21.75
2022-09-03T08:16:44.347Z,21.92
2022-09-03T08:19:13.569Z,17.83
2022-09-03T08:21:44.216Z,18.30
2022-09-03T08:24:12.851Z,17.27
2022-09-03T08:26:46.204Z,26.10
2022-09-03T08:29:13.692Z,20.42
2022-09-03T08:31:41.044Z,16.25
2022-09-03T08:34:08.604Z,21.73
2022-09-03T08:36:37.597Z,20.13
2022-09-03T08:39:10.694Z,21.08
2022-09-03T08:41:59.930Z,18.13
2022-09-03T08:44:36.624Z,23.80
2022-09-03T08:47:18.578Z,24.17
2022-09-03T08:49:48.891Z,27.02
2022-09-03T08:52:54.582Z,20.75
2022-09-03T08:55:45.035Z,19.17
2022-09-03T08:58:17.238Z,21.05
2022-09-03T09:00:53.017Z,15.77
2022-09-03T09:03:42.736Z,17.00
2022-09-03T09:06:30.394Z,18.17
2022-09-03T09:09:16.355Z,20.67
2022-09-03T09:12:27.063Z,19.98
2022-09-03T09:15:16.432Z,22.00
2022-09-03T09:17:52.536Z,22.30
2022-09-03T09:20:26.554Z,19.05
2022-09-03T09:22:59.674Z,20.48
2022-09-03T09:25:27.272Z,21.30
2022-09-03T09:28:03.707Z,16.08
2022-09-03T09:30:32.892Z,15.45
2022-09-03T09:33:00.945Z,18.50
2022-09-03T09:35:28.174Z,13.73
2022-09-03T09:38:00.497Z,18.02
2022-09-03T09:40:36.342Z,16.98
2022-09-03T09:43:12.325Z,20.10
2022-09-03T09:45:41.834Z,16.63
2022-09-03T09:48:17.682Z,16.80
2022-09-03T09:50:45.513Z,18.95
2022-09-03T09:53:16.681Z,15.13
2022-09-03T09:56:00.831Z,17.52
2022-09-03T09:58:31.059Z,13.10
2022-09-03T10:01:14.528Z,13.68
2022-09-03T10:04:09.842Z,14.82
2022-09-03T10:06:57.014Z,17.02
2022-09-03T10:09:31.383Z,16.20
2022-09-03T10:12:14.731Z,18.70
2022-09-03T10:14:57.903Z,19.27
2022-09-03T10:17:36.950Z,17.42
2022-09-03T10:20:30.493Z,16.33
2022-09-03T10:23:02.215Z,22.27
2022-09-03T10:25:50.405Z,21.15
2022-09-03T10:28:18.586Z,16.63
2022-09-03T10:31:23.235Z,15.45
2022-09-03T10:33:59.584Z,21.20
2022-09-03T10:36:46.506Z,18.20
2022-09-03T10:39:43.073Z,16.38
2022-09-03T10:43:05.118Z,19.38
2022-09-03T10:45:52.979Z,17.95
2022-09-03T10:48:35.283Z,17.70
2022-09-03T10:51:11.498Z,17.98
2022-09-03T10:53:57.169Z,18.10
2022-09-03T10:56:54.225Z,15.85
2022-09-03T10:59:54.979Z,19.35
2022-09-03T11:02:41.503Z,18.15
2022-09-03T11:05:18.052Z,16.30
2022-09-03T11:10:33.519Z,15.65
2022-09-03T11:13:25.271Z,22.77
2022-09-03T11:16:06.813Z,16.63
2022-09-03T11:18:41.157Z,16.15
2022-09-03T11:21:14.175Z,14.98
2022-09-03T11:23:45.346Z,15.63
2022-09-03T11:26:17.416Z,16.50
2022-09-03T11:29:09.313Z,16.30
2022-09-03T11:31:56.454Z,13.27
2022-09-03T11:34:34.085Z,14.68
2022-09-03T11:37:25.563Z,15.05
2022-09-03T11:40:12.286Z,19.30
2022-09-03T11:42:42.367Z,16.83
2022-09-03T11:45:21.874Z,15.18
2022-09-03T11:47:49.987Z,14.60
2022-09-03T11:50:28.881Z,15.63
2022-09-03T11:53:25.552Z,13.55
2022-09-03T11:56:20.222Z,17.73
2022-09-03T11:58:48.017Z,14.82
2022-09-03T12:01:20.522Z,18.23
2022-09-03T12:03:54.868Z,15.40
2022-09-03T12:06:49.343Z,13.68
2022-09-03T12:09:32.865Z,13.30
2022-09-03T12:12:28.148Z,16.80
2022-09-03T12:15:16.096Z,13.95
2022-09-03T12:18:18.118Z,13.52
2022-09-03T12:20:46.828Z,16.00
2022-09-03T12:23:27.204Z,21.58
2022-09-03T12:25:54.793Z,14.48
2022-09-03T12:28:28.349Z,13.43
2022-09-03T12:31:21.549Z,15.13
2022-09-03T12:33:51.626Z,12.52
2022-09-03T12:36:18.613Z,13.30
2022-09-03T12:39:10.355Z,18.08
2022-09-03T12:41:34.832Z,15.48
2022-09-03T12:44:04.295Z,18.00
2022-09-03T12:46:34.576Z,15.55
2022-09-03T12:52:03.147Z,14.30
2022-09-03T12:54:33.155Z,14.02
2022-09-03T12:57:01.243Z,16.30
2022-09-03T12:59:32.518Z,11.32
2022-09-03T13:02:06.829Z,13.93
2022-09-03T13:04:36.575Z,14.93
2022-09-03T13:07:08.297Z,11.90
2022-09-03T13:09:38.276Z,15.57
2022-09-03T13:12:06.038Z,17.77
2022-09-03T13:14:52.369Z,17.65
2022-09-03T13:17:35.654Z,14.75
2022-09-03T13:20:28.996Z,13.43
2022-09-03T13:23:26.462Z,13.27
2022-09-03T13:31:27.262Z,11.30
2022-09-03T13:34:01.785Z,12.23
2022-09-03T13:36:58.506Z,12.13
2022-09-03T13:39:35.671Z,12.07
2022-09-03T13:42:18.487Z,10.20
2022-09-03T13:44:52.537Z,9.70
2022-09-03T13:48:04.842Z,16.55
2022-09-03T13:51:00.003Z,9.70
2022-09-03T13:53:27.205Z,9.68
2022-09-03T13:55:58.159Z,13.80
2022-09-03T13:58:46.894Z,8.95
2022-09-03T14:01:53.856Z,13.13
2022-09-03T14:04:35.216Z,10.98
2022-09-03T14:07:09.875Z,10.68
2022-09-03T14:09:52.181Z,8.40
2022-09-03T14:12:24.084Z,8.88
2022-09-03T14:15:09.342Z,7.00
2022-09-03T14:18:13.443Z,10.95
2022-09-03T14:21:18.114Z,11.02
2022-09-03T14:23:45.088Z,8.50
2022-09-03T14:26:38.506Z,11.27
2022-09-03T14:29:12.634Z,9.50
2022-09-03T14:32:10.504Z,9.45
2022-09-03T14:34:59.038Z,11.98
2022-09-03T14:37:25.963Z,9.85
2022-09-03T14:40:05.340Z,10.18
2022-09-03T14:42:47.355Z,9.45
2022-09-03T14:45:23.132Z,9.07
2022-09-03T14:48:16.363Z,8.33
2022-09-03T14:51:06.653Z,7.70
2022-09-03T14:54:11.617Z,7.78
2022-09-03T14:56:48.084Z,9.95
2022-09-03T15:01:49.583Z,12.73
2022-09-03T15:04:47.363Z,12.88
2022-09-03T15:07:37.715Z,8.75
2022-09-03T15:10:42.061Z,14.60
2022-09-03T15:13:11.035Z,8.77
2022-09-03T15:15:40.814Z,8.45
2022-09-03T15:18:35.075Z,8.20
2022-09-03T15:21:24.535Z,7.63
2022-09-03T15:24:07.333Z,10.32
2022-09-03T15:27:07.477Z,13.32
2022-09-03T15:29:40.520Z,11.85
2022-09-03T15:32:17.591Z,11.25
2022-09-03T15:35:29.391Z,13.68
2022-09-03T15:38:00.481Z,13.45
2022-09-03T15:40:45.824Z,10.95
2022-09-03T15:43:29.674Z,10.43
2022-09-03T15:46:00.998Z,10.05
2022-09-03T15:48:52.122Z,10.40
2022-09-03T15:52:01.972Z,16.05
2022-09-03T15:54:56.663Z,11.57
2022-09-03T15:57:39.424Z,11.60
2022-09-03T16:00:12.913Z,9.57
2022-09-03T16:02:59.730Z,12.32
2022-09-03T16:05:38.571Z,8.93
2022-09-03T16:08:34.229Z,11.95
2022-09-03T16:11:16.644Z,11.20
2022-09-03T16:14:15.830Z,10.90
2022-09-03T16:16:59.803Z,13.75
2022-09-03T16:19:43.383Z,13.43
2022-09-03T16:22:22.644Z,12.77
2022-09-03T16:25:18.981Z,11.40
2022-09-03T16:28:01.795Z,10.95
2022-09-03T16:30:40.592Z,13.60
2022-09-03T16:33:21.720Z,13.30
2022-09-03T16:36:09.415Z,14.52
2022-09-03T16:38:38.924Z,18.15
2022-09-03T16:41:52.065Z,14.73
2022-09-03T16:44:41.440Z,17.73
2022-09-03T16:47:12.979Z,20.33
2022-09-03T16:50:04.805Z,21.50
2022-09-03T16:53:14.944Z,16.27
2022-09-03T16:55:57.600Z,14.68
2022-09-03T16:58:45.268Z,18.98
2022-09-03T17:01:30.592Z,14.15
2022-09-03T17:04:24.902Z,20.83
2022-09-03T17:07:03.813Z,20.67
2022-09-03T17:09:47.803Z,16.70
2022-09-03T17:12:42.821Z,18.35
2022-09-03T17:15:32.507Z,19.75
2022-09-03T17:18:20.935Z,20.27
2022-09-03T17:21:24.980Z,17.95
2022-09-03T17:24:07.654Z,30.70
2022-09-03T17:26:44.463Z,36.80
2022-09-03T17:29:40.724Z,24.75
2022-09-03T17:32:32.232Z,20.77
2022-09-03T17:35:03.744Z,21.75
2022-09-03T17:37:48.336Z,25.23
2022-09-03T17:40:49.650Z,27.67
2022-09-03T17:43:27.371Z,22.80
2022-09-03T17:46:08.630Z,22.77
2022-09-03T17:48:49.663Z,24.27
2022-09-03T17:51:43.107Z,19.45
2022-09-03T17:54:29.106Z,27.25
2022-09-03T17:57:05.244Z,25.75
2022-09-03T17:59:59.414Z,27.20
2022-09-03T18:02:31.810Z,28.55
2022-09-03T18:05:05.383Z,25.45
2022-09-03T18:07:56.894Z,29.38
2022-09-03T18:10:31.173Z,32.78
2022-09-03T18:13:23.709Z,26.77
2022-09-03T18:16:06.439Z,24.23
2022-09-03T18:18:37.069Z,23.13
2022-09-03T18:21:31.883Z,30.48
2022-09-03T18:24:23.138Z,30.85
2022-09-03T18:27:33.820Z,26.23
2022-09-03T18:30:28.313Z,23.25
2022-09-03T18:33:15.485Z,25.45
2022-09-03T18:38:55.403Z,27.45
2022-09-03T18:41:55.816Z,24.63
2022-09-03T18:45:19.830Z,25.20
2022-09-03T18:48:23.527Z,25.20
2022-09-03T18:51:24.364Z,23.40
2022-09-03T18:54:56.827Z,30.73
2022-09-03T18:57:51.531Z,25.60
2022-09-03T19:00:37.086Z,26.43
2022-09-03T19:03:33.923Z,27.60
2022-09-03T19:06:56.407Z,26.33
2022-09-03T19:10:00.009Z,28.10
2022-09-03T19:13:06.189Z,27.05
2022-09-03T19:16:00.013Z,24.08
2022-09-03T19:18:54.317Z,23.95
2022-09-03T19:21:39.901Z,25.33
2022-09-03T19:24:25.187Z,24.13
2022-09-03T19:31:11.001Z,24.95
2022-09-03T19:34:07.247Z,28.85
2022-09-03T19:37:31.585Z,35.13
2022-09-03T19:40:52.656Z,31.30
2022-09-03T19:43:56.366Z,30.48
2022-09-03T19:46:52.054Z,26.20
2022-09-03T19:50:19.110Z,29.88
2022-09-03T19:53:19.986Z,25.48
2022-09-03T19:56:21.944Z,26.27
2022-09-03T19:59:13.715Z,31.58
2022-09-03T20:02:00.810Z,28.75
2022-09-03T20:07:39.354Z,25.33
2022-09-03T20:10:22.542Z,28.92
2022-09-03T20:13:10.673Z,29.80
2022-09-03T20:15:52.482Z,28.58
2022-09-03T20:18:51.426Z,31.30
2022-09-03T20:21:36.426Z,32.08
2022-09-03T20:24:34.126Z,27.02
2022-09-03T20:27:03.863Z,27.70
2022-09-03T20:29:46.246Z,35.35
2022-09-03T20:32:56.913Z,28.27
2022-09-03T20:35:23.856Z,35.20
2022-09-03T20:38:10.601Z,33.92
2022-09-03T20:40:50.558Z,30.30
2022-09-03T20:43:59.493Z,37.75
2022-09-03T20:47:04.553Z,35.72
2022-09-03T20:49:52.942Z,35.90
2022-09-03T20:52:37.081Z,43.03
2022-09-03T20:55:13.044Z,32.38
2022-09-03T20:58:06.062Z,33.83
2022-09-03T21:00:54.211Z,31.50
2022-09-03T21:03:43.134Z,31.85
2022-09-03T21:06:33.634Z,34.05
2022-09-03T21:09:12.101Z,34.88
2022-09-03T21:12:03.943Z,40.55
2022-09-03T21:14:46.776Z,37.25
2022-09-03T21:17:54.078Z,29.63
2022-09-03T21:20:39.432Z,28.73
2022-09-03T21:23:13.251Z,30.85
2022-09-03T21:25:46.987Z,23.17
2022-09-03T21:28:38.756Z,27.00
2022-09-03T21:31:32.063Z,28.33
2022-09-03T21:34:14.174Z,29.77
2022-09-03T21:36:43.604Z,31.83
2022-09-03T21:39:34.771Z,34.88
2022-09-03T21:42:13.940Z,30.77
2022-09-03T21:44:40.827Z,32.25
2022-09-03T21:47:21.684Z,28.98
2022-09-03T21:50:22.606Z,28.50
2022-09-03T21:52:56.117Z,31.23
2022-09-03T21:55:36.163Z,30.85
2022-09-03T21:58:40.601Z,28.25
2022-09-03T22:01:15.130Z,26.90
2022-09-03T22:03:43.142Z,32.88
2022-09-03T22:06:19.125Z,34.17
2022-09-03T22:08:58.205Z,37.90
2022-09-03T22:12:08.904Z,26.65
2022-09-03T22:14:48.143Z,35.88
2022-09-03T22:17:33.235Z,25.95
2022-09-03T22:20:00.215Z,35.65
2022-09-03T22:22:41.065Z,28.77
2022-09-03T22:25:53.093Z,26.65
2022-09-03T22:28:25.897Z,26.63
2022-09-03T22:31:01.795Z,25.42
2022-09-03T22:33:40.709Z,30.37
2022-09-03T22:36:16.103Z,29.00
2022-09-03T22:38:57.885Z,29.23
2022-09-03T22:41:35.015Z,25.00
2022-09-03T22:44:44.878Z,27.17
2022-09-03T22:47:24.623Z,27.30
2022-09-03T22:50:21.703Z,42.60
2022-09-03T22:53:17.584Z,30.65
2022-09-03T22:56:09.246Z,33.88
2022-09-03T22:58:51.224Z,33.15
2022-09-03T23:01:26.286Z,28.77
2022-09-03T23:04:07.336Z,32.50
2022-09-03T23:06:39.746Z,33.97
2022-09-03T23:09:10.624Z,32.63
2022-09-03T23:11:44.375Z,30.70
2022-09-03T23:14:15.927Z,26.42
2022-09-03T23:16:52.849Z,30.50
2022-09-03T23:19:41.146Z,43.33
2022-09-03T23:22:15.374Z,26.25
2022-09-03T23:24:49.919Z,35.70
2022-09-03T23:27:23.524Z,29.63
2022-09-03T23:30:00.874Z,28.80
2022-09-03T23:32:33.131Z,34.08
2022-09-03T23:35:07.551Z,27.23
2022-09-03T23:37:53.921Z,29.92
2022-09-03T23:40:34.703Z,32.78
2022-09-03T23:43:11.182Z,35.20
2022-09-03T23:45:38.169Z,29.98
2022-09-03T23:48:23.845Z,29.88
2022-09-03T23:51:18.776Z,27.83
2022-09-03T23:54:23.345Z,24.63
2022-09-03T23:57:03.441Z,26.85
2022-09-03T23:59:42.358Z,23.88
